createdAt,value
2019-03-23T00:02:16.876Z,8.86
2019-03-23T00:04:45.174Z,8.79
2019-03-23T00:07:13.520Z,8.79
2019-03-23T00:09:41.862Z,8.76
2019-03-23T00:12:10.145Z,8.62
2019-03-23T00:14:38.393Z,8.53
2019-03-23T00:17:06.676Z,8.40
2019-03-23T00:19:35.038Z,8.29
2019-03-23T00:22:03.518Z,8.24
2019-03-23T00:24:31.797Z,8.19
2019-03-23T00:27:00.328Z,8.14
2019-03-23T00:29:28.698Z,8.15
2019-03-23T00:31:57.044Z,8.11
2019-03-23T00:34:25.362Z,8.09
2019-03-23T00:36:53.713Z,8.06
2019-03-23T00:39:21.937Z,7.98
2019-03-23T00:41:50.831Z,7.98
2019-03-23T00:44:19.156Z,8.02
2019-03-23T00:46:47.534Z,8.06
2019-03-23T00:49:15.966Z,8.08
2019-03-23T00:51:44.404Z,8.10
2019-03-23T00:54:12.674Z,8.11
2019-03-23T00:56:41.130Z,8.02
2019-03-23T00:59:09.470Z,7.89
2019-03-23T01:01:37.916Z,7.82
2019-03-23T01:04:06.147Z,7.81
2019-03-23T01:06:35.010Z,7.72
2019-03-23T01:09:04.930Z,7.69
2019-03-23T01:11:33.340Z,7.71
2019-03-23T01:14:01.599Z,7.72
2019-03-23T01:16:29.991Z,7.73
2019-03-23T01:18:58.458Z,7.76
2019-03-23T01:21:27.086Z,7.76
2019-03-23T01:23:55.466Z,7.74
2019-03-23T01:26:23.763Z,7.72
2019-03-23T01:28:52.030Z,7.59
2019-03-23T01:31:20.339Z,7.64
2019-03-23T01:33:48.589Z,7.71
2019-03-23T01:36:16.896Z,7.75
2019-03-23T01:38:45.151Z,7.76
2019-03-23T01:41:13.583Z,7.72
2019-03-23T01:43:41.911Z,7.69
2019-03-23T01:46:10.903Z,7.75
2019-03-23T01:48:39.204Z,7.77
2019-03-23T01:51:08.675Z,7.84
2019-03-23T01:53:36.895Z,7.88
2019-03-23T01:56:05.246Z,7.89
2019-03-23T01:58:33.605Z,7.89
2019-03-23T02:01:01.870Z,7.86
2019-03-23T02:03:30.697Z,7.82
2019-03-23T02:05:58.992Z,7.74
2019-03-23T02:08:31.799Z,7.67
2019-03-23T02:11:00.161Z,7.60
2019-03-23T02:13:28.459Z,7.53
2019-03-23T02:15:56.689Z,7.45
2019-03-23T02:18:24.996Z,7.49
2019-03-23T02:20:53.922Z,7.43
2019-03-23T02:23:22.739Z,7.47
2019-03-23T02:25:51.021Z,7.56
2019-03-23T02:28:19.317Z,7.64
2019-03-23T02:30:47.647Z,7.70
2019-03-23T02:33:15.969Z,7.75
2019-03-23T02:35:44.249Z,7.80
2019-03-23T02:38:12.649Z,7.84
2019-03-23T02:40:41.070Z,7.84
2019-03-23T02:43:09.512Z,7.83
2019-03-23T02:45:37.883Z,7.82
2019-03-23T02:48:06.915Z,7.83
2019-03-23T02:50:35.172Z,7.82
2019-03-23T02:53:03.624Z,7.77
2019-03-23T02:55:31.876Z,7.75
2019-03-23T02:58:00.169Z,7.72
2019-03-23T03:00:28.435Z,7.70
2019-03-23T03:02:56.818Z,7.69
2019-03-23T03:05:25.070Z,7.64
2019-03-23T03:07:53.394Z,7.61
2019-03-23T03:10:49.805Z,7.46
2019-03-23T03:13:18.131Z,7.39
2019-03-23T03:15:46.405Z,7.33
2019-03-23T03:18:14.702Z,7.27
2019-03-23T03:20:42.989Z,7.30
2019-03-23T03:23:11.270Z,7.33
2019-03-23T03:25:39.625Z,7.34
2019-03-23T03:28:07.953Z,7.30
2019-03-23T03:30:36.313Z,7.35
2019-03-23T03:33:05.323Z,7.42
2019-03-23T03:35:33.544Z,7.40
2019-03-23T03:38:01.805Z,7.40
2019-03-23T03:40:30.152Z,7.41
2019-03-23T03:42:58.630Z,7.42
2019-03-23T03:45:27.520Z,7.40
2019-03-23T03:47:56.328Z,7.27
2019-03-23T03:50:24.773Z,7.28
2019-03-23T03:52:53.925Z,7.31
2019-03-23T03:55:23.295Z,7.32
2019-03-23T03:57:52.002Z,7.31
2019-03-23T04:00:20.453Z,7.31
2019-03-23T04:02:48.684Z,7.31
2019-03-23T04:05:17.118Z,7.31
2019-03-23T04:07:45.490Z,7.33
2019-03-23T04:10:13.897Z,7.29
2019-03-23T04:12:53.171Z,7.26
2019-03-23T04:15:21.447Z,7.24
2019-03-23T04:17:49.688Z,7.22
2019-03-23T04:20:18.102Z,7.21
2019-03-23T04:22:46.553Z,7.16
2019-03-23T04:25:14.931Z,7.16
2019-03-23T04:27:43.164Z,7.13
2019-03-23T04:30:12.013Z,7.11
2019-03-23T04:32:40.437Z,7.08
2019-03-23T04:35:08.926Z,7.04
2019-03-23T04:37:37.141Z,7.00
2019-03-23T04:40:06.111Z,6.97
2019-03-23T04:42:34.405Z,6.92
2019-03-23T04:45:03.564Z,6.88
2019-03-23T04:47:31.969Z,6.87
2019-03-23T04:50:00.904Z,6.89
2019-03-23T04:52:29.392Z,6.89
2019-03-23T04:54:58.347Z,6.91
2019-03-23T04:57:26.590Z,6.90
2019-03-23T04:59:54.888Z,6.80
2019-03-23T05:02:23.160Z,6.75
2019-03-23T05:04:51.465Z,6.79
2019-03-23T05:07:19.790Z,6.81
2019-03-23T05:09:48.083Z,6.83
2019-03-23T05:12:17.444Z,6.83
2019-03-23T05:14:48.729Z,6.84
2019-03-23T05:17:17.082Z,6.83
2019-03-23T05:19:46.118Z,6.85
2019-03-23T05:22:14.565Z,6.87
2019-03-23T05:24:42.884Z,6.86
2019-03-23T05:27:11.150Z,6.87
2019-03-23T05:29:40.774Z,6.84
2019-03-23T05:32:09.011Z,6.84
2019-03-23T05:34:37.340Z,6.85
2019-03-23T05:37:05.608Z,6.87
2019-03-23T05:39:33.913Z,6.87
2019-03-23T05:42:02.179Z,6.88
2019-03-23T05:44:30.481Z,6.89
2019-03-23T05:46:59.055Z,6.89
2019-03-23T05:49:27.401Z,6.89
2019-03-23T05:51:55.749Z,6.92
2019-03-23T05:54:24.071Z,6.93
2019-03-23T05:56:52.344Z,6.96
2019-03-23T05:59:21.145Z,6.93
2019-03-23T06:01:49.468Z,6.98
2019-03-23T06:04:17.748Z,6.97
2019-03-23T06:06:46.085Z,6.95
2019-03-23T06:09:14.471Z,6.98
2019-03-23T06:11:42.792Z,7.05
2019-03-23T06:14:11.953Z,7.13
2019-03-23T06:16:42.316Z,7.17
2019-03-23T06:19:10.667Z,7.20
2019-03-23T06:21:39.014Z,7.23
2019-03-23T06:24:07.258Z,7.30
2019-03-23T06:26:35.570Z,7.35
2019-03-23T06:29:03.915Z,7.43
2019-03-23T06:31:32.242Z,7.52
2019-03-23T06:34:00.496Z,7.59
2019-03-23T06:36:28.827Z,7.65
2019-03-23T06:39:05.174Z,7.75
2019-03-23T06:41:27.266Z,7.84
2019-03-23T06:43:55.515Z,7.92
2019-03-23T06:46:23.840Z,8.04
2019-03-23T06:48:52.156Z,8.12
2019-03-23T06:51:20.495Z,8.18
2019-03-23T06:53:48.797Z,8.26
2019-03-23T06:56:17.121Z,8.39
2019-03-23T06:58:45.379Z,8.52
2019-03-23T07:01:13.738Z,8.60
2019-03-23T07:03:42.097Z,8.70
2019-03-23T07:06:10.428Z,8.88
2019-03-23T07:08:38.720Z,8.93
2019-03-23T07:11:07.162Z,9.05
2019-03-23T07:13:35.431Z,9.16
2019-03-23T07:16:04.528Z,9.27
2019-03-23T07:18:32.833Z,9.43
2019-03-23T07:21:01.152Z,9.44
2019-03-23T07:23:30.292Z,9.50
2019-03-23T07:25:58.601Z,9.64
2019-03-23T07:28:26.858Z,9.73
2019-03-23T07:30:55.198Z,9.84
2019-03-23T07:33:23.472Z,9.93
2019-03-23T07:35:51.802Z,10.12
2019-03-23T07:38:20.043Z,10.22
2019-03-23T07:40:48.479Z,10.39
2019-03-23T07:43:16.758Z,10.46
2019-03-23T07:45:45.028Z,10.55
2019-03-23T07:48:13.357Z,10.67
2019-03-23T07:50:42.100Z,10.87
2019-03-23T07:53:10.989Z,10.99
2019-03-23T07:55:39.472Z,11.16
2019-03-23T07:58:08.647Z,11.22
2019-03-23T08:00:37.008Z,11.32
2019-03-23T08:03:05.504Z,11.42
2019-03-23T08:05:33.901Z,11.50
2019-03-23T08:08:02.221Z,11.62
2019-03-23T08:10:31.994Z,11.74
2019-03-23T08:13:00.492Z,11.81
2019-03-23T08:15:28.969Z,11.95
2019-03-23T08:17:57.425Z,12.05
2019-03-23T08:20:25.862Z,12.18
2019-03-23T08:22:54.708Z,12.28
2019-03-23T08:25:23.306Z,12.36
2019-03-23T08:27:51.750Z,12.55
2019-03-23T08:30:21.046Z,13.16
2019-03-23T08:32:49.622Z,13.26
2019-03-23T08:35:17.904Z,13.66
2019-03-23T08:37:46.325Z,13.97
2019-03-23T08:40:14.605Z,14.24
2019-03-23T08:42:42.893Z,14.32
2019-03-23T08:45:11.435Z,14.37
2019-03-23T08:47:39.756Z,14.37
2019-03-23T08:50:08.327Z,14.70
2019-03-23T08:52:36.847Z,14.70
2019-03-23T08:55:05.344Z,15.05
2019-03-23T08:57:33.636Z,15.05
2019-03-23T09:00:01.897Z,15.25
2019-03-23T09:02:30.209Z,15.51
2019-03-23T09:04:58.491Z,15.74
2019-03-23T09:07:26.803Z,15.74
2019-03-23T09:09:59.393Z,15.74
2019-03-23T09:12:26.087Z,15.74
2019-03-23T09:14:54.385Z,15.76
2019-03-23T09:17:22.665Z,16.04
2019-03-23T09:19:51.802Z,16.23
2019-03-23T09:22:20.910Z,16.24
2019-03-23T09:24:49.281Z,16.34
2019-03-23T09:27:17.720Z,16.43
2019-03-23T09:29:45.974Z,16.52
2019-03-23T09:32:14.582Z,16.58
2019-03-23T09:34:42.914Z,16.72
2019-03-23T09:37:11.319Z,17.03
2019-03-23T09:39:39.716Z,17.28
2019-03-23T09:42:07.948Z,17.42
2019-03-23T09:44:37.940Z,17.54
2019-03-23T09:47:06.391Z,17.74
2019-03-23T09:49:34.796Z,17.79
2019-03-23T09:52:04.067Z,17.84
2019-03-23T09:54:36.430Z,18.12
2019-03-23T09:57:04.895Z,17.97
2019-03-23T09:59:33.219Z,17.97
2019-03-23T10:02:01.679Z,18.10
2019-03-23T10:04:30.112Z,18.19
2019-03-23T10:06:58.386Z,17.78
2019-03-23T10:09:26.844Z,17.66
2019-03-23T10:11:55.554Z,17.53
2019-03-23T10:14:23.848Z,17.48
2019-03-23T10:16:52.216Z,17.53
2019-03-23T10:19:20.511Z,17.68
2019-03-23T10:21:48.857Z,17.68
2019-03-23T10:24:17.282Z,17.75
2019-03-23T10:26:45.737Z,17.78
2019-03-23T10:29:14.075Z,17.86
2019-03-23T10:31:42.304Z,17.96
2019-03-23T10:34:10.637Z,18.07
2019-03-23T10:36:38.961Z,18.14
2019-03-23T10:39:07.268Z,18.21
2019-03-23T10:41:35.631Z,18.29
2019-03-23T10:44:04.020Z,18.44
2019-03-23T10:46:32.365Z,18.60
2019-03-23T10:49:00.669Z,18.69
2019-03-23T10:51:28.985Z,18.80
2019-03-23T10:53:57.521Z,18.95
2019-03-23T10:56:35.806Z,19.20
2019-03-23T10:59:04.193Z,19.46
2019-03-23T11:01:32.465Z,19.46
2019-03-23T11:04:00.727Z,19.50
2019-03-23T11:06:29.829Z,19.60
2019-03-23T11:08:58.113Z,19.71
2019-03-23T11:11:26.457Z,19.80
2019-03-23T11:13:54.829Z,19.90
2019-03-23T11:16:23.609Z,19.99
2019-03-23T11:18:52.046Z,20.18
2019-03-23T11:21:20.325Z,20.31
2019-03-23T11:23:48.620Z,20.46
2019-03-23T11:26:16.886Z,20.66
2019-03-23T11:28:45.228Z,20.77
2019-03-23T11:31:13.721Z,20.88
2019-03-23T11:33:41.972Z,20.98
2019-03-23T11:36:10.525Z,21.16
2019-03-23T11:38:39.376Z,21.34
2019-03-23T11:41:07.660Z,21.58
2019-03-23T11:43:35.886Z,21.86
2019-03-23T11:46:04.406Z,22.14
2019-03-23T11:48:32.699Z,22.28
2019-03-23T11:51:01.653Z,22.41
2019-03-23T11:53:30.585Z,22.60
2019-03-23T11:55:58.880Z,22.80
2019-03-23T11:58:27.154Z,22.90
2019-03-23T12:00:55.491Z,23.00
2019-03-23T12:03:23.729Z,23.17
2019-03-23T12:05:52.119Z,23.20
2019-03-23T12:08:20.382Z,23.14
2019-03-23T12:10:48.718Z,23.29
2019-03-23T12:13:16.976Z,23.32
2019-03-23T12:15:45.264Z,23.46
2019-03-23T12:18:13.731Z,23.63
2019-03-23T12:20:43.409Z,23.85
2019-03-23T12:23:11.767Z,23.97
2019-03-23T12:25:40.250Z,24.11
2019-03-23T12:28:09.380Z,24.18
2019-03-23T12:30:38.049Z,24.28
2019-03-23T12:33:07.037Z,24.27
2019-03-23T12:35:35.360Z,24.48
2019-03-23T12:38:03.699Z,24.61
2019-03-23T12:40:32.016Z,24.76
2019-03-23T12:43:00.265Z,24.70
2019-03-23T12:45:28.762Z,24.71
2019-03-23T12:47:56.994Z,24.78
2019-03-23T12:50:25.850Z,24.69
2019-03-23T12:52:54.263Z,24.82
2019-03-23T12:55:22.564Z,25.06
2019-03-23T12:57:50.845Z,25.27
2019-03-23T13:00:19.380Z,25.37
2019-03-23T13:02:47.748Z,25.49
2019-03-23T13:05:16.041Z,25.30
2019-03-23T13:07:44.282Z,25.39
2019-03-23T13:10:12.982Z,25.47
2019-03-23T13:12:41.415Z,25.47
2019-03-23T13:15:10.733Z,25.40
2019-03-23T13:17:39.090Z,25.26
2019-03-23T13:20:08.817Z,25.15
2019-03-23T13:22:37.363Z,24.89
2019-03-23T13:25:07.205Z,24.89
2019-03-23T13:27:35.589Z,24.91
2019-03-23T13:30:04.825Z,24.90
2019-03-23T13:32:33.103Z,24.95
2019-03-23T13:35:01.344Z,25.15
2019-03-23T13:37:29.631Z,25.26
2019-03-23T13:39:57.866Z,25.10
2019-03-23T13:42:26.177Z,25.01
2019-03-23T13:44:54.503Z,25.13
2019-03-23T13:47:22.811Z,25.34
2019-03-23T13:49:51.080Z,25.48
2019-03-23T13:52:19.419Z,25.40
2019-03-23T13:54:47.708Z,25.40
2019-03-23T13:57:16.259Z,25.41
2019-03-23T13:59:44.492Z,25.50
2019-03-23T14:02:12.854Z,25.58
2019-03-23T14:04:41.154Z,25.72
2019-03-23T14:07:09.616Z,25.62
2019-03-23T14:09:37.858Z,25.43
2019-03-23T14:12:06.384Z,25.50
2019-03-23T14:14:34.682Z,25.32
2019-03-23T14:17:03.237Z,25.37
2019-03-23T14:19:31.625Z,25.41
2019-03-23T14:22:00.387Z,25.31
2019-03-23T14:24:28.658Z,25.33
2019-03-23T14:26:56.953Z,25.41
2019-03-23T14:29:25.219Z,25.52
2019-03-23T14:31:53.492Z,25.61
2019-03-23T14:34:21.829Z,25.72
2019-03-23T14:36:50.123Z,25.76
2019-03-23T14:39:18.374Z,25.67
2019-03-23T14:41:46.650Z,25.75
2019-03-23T14:44:14.871Z,25.65
2019-03-23T14:46:43.183Z,25.68
2019-03-23T14:49:11.525Z,25.67
2019-03-23T14:51:39.869Z,25.69
2019-03-23T14:54:08.195Z,25.76
2019-03-23T14:56:36.655Z,25.89
2019-03-23T14:59:04.995Z,25.89
2019-03-23T15:01:33.350Z,25.78
2019-03-23T15:04:01.545Z,25.76
2019-03-23T15:06:29.739Z,25.81
2019-03-23T15:08:58.234Z,25.77
2019-03-23T15:11:26.486Z,25.71
2019-03-23T15:13:54.891Z,25.65
2019-03-23T15:16:23.198Z,25.61
2019-03-23T15:18:52.510Z,25.51
2019-03-23T15:21:20.784Z,25.43
2019-03-23T15:23:49.198Z,25.40
2019-03-23T15:26:17.539Z,25.38
2019-03-23T15:28:45.915Z,25.13
2019-03-23T15:31:14.171Z,25.18
2019-03-23T15:33:44.376Z,25.16
2019-03-23T15:36:24.839Z,24.98
2019-03-23T15:38:53.107Z,25.00
2019-03-23T15:41:21.566Z,25.10
2019-03-23T15:43:49.841Z,24.93
2019-03-23T15:46:18.168Z,24.85
2019-03-23T15:48:46.481Z,24.89
2019-03-23T15:51:14.865Z,24.85
2019-03-23T15:53:43.177Z,24.79
2019-03-23T15:56:11.423Z,24.71
2019-03-23T15:58:39.754Z,24.66
2019-03-23T16:01:08.517Z,24.58
2019-03-23T16:03:36.908Z,24.42
2019-03-23T16:06:05.276Z,24.35
2019-03-23T16:08:33.582Z,24.33
2019-03-23T16:11:01.833Z,24.20
2019-03-23T16:13:30.174Z,24.15
2019-03-23T16:15:58.398Z,24.05
2019-03-23T16:18:26.803Z,24.03
2019-03-23T16:20:55.043Z,24.01
2019-03-23T16:23:23.362Z,24.05
2019-03-23T16:25:51.734Z,24.11
2019-03-23T16:28:20.039Z,24.05
2019-03-23T16:30:48.298Z,23.95
2019-03-23T16:33:16.608Z,23.83
2019-03-23T16:35:44.847Z,23.79
2019-03-23T16:38:13.129Z,23.64
2019-03-23T16:40:41.480Z,23.57
2019-03-23T16:43:09.840Z,23.50
2019-03-23T16:45:38.152Z,23.42
2019-03-23T16:48:06.378Z,23.40
2019-03-23T16:50:34.655Z,23.29
2019-03-23T16:53:03.203Z,23.20
2019-03-23T16:55:31.486Z,23.09
2019-03-23T16:57:59.807Z,22.96
2019-03-23T17:00:35.860Z,22.82
2019-03-23T17:03:04.478Z,22.81
2019-03-23T17:05:32.868Z,22.80
2019-03-23T17:08:01.126Z,22.73
2019-03-23T17:10:29.599Z,22.63
2019-03-23T17:12:57.831Z,22.33
2019-03-23T17:15:26.135Z,22.15
2019-03-23T17:17:54.346Z,22.02
2019-03-23T17:20:22.627Z,21.93
2019-03-23T17:22:50.863Z,21.83
2019-03-23T17:25:19.156Z,21.71
2019-03-23T17:27:47.433Z,21.61
2019-03-23T17:30:15.928Z,21.54
2019-03-23T17:32:44.265Z,21.46
2019-03-23T17:35:12.743Z,21.30
2019-03-23T17:37:40.993Z,21.20
2019-03-23T17:40:09.505Z,21.14
2019-03-23T17:42:37.752Z,21.10
2019-03-23T17:45:06.406Z,21.00
2019-03-23T17:47:34.774Z,20.94
2019-03-23T17:50:03.173Z,20.86
2019-03-23T17:52:31.470Z,20.74
2019-03-23T17:54:59.740Z,20.68
2019-03-23T17:57:28.001Z,20.64
2019-03-23T17:59:56.266Z,20.58
2019-03-23T18:02:24.590Z,20.56
2019-03-23T18:04:52.925Z,20.50
2019-03-23T18:07:21.355Z,20.42
2019-03-23T18:09:51.392Z,20.34
2019-03-23T18:12:19.658Z,20.24
2019-03-23T18:14:47.964Z,20.15
2019-03-23T18:17:16.201Z,20.05
2019-03-23T18:19:46.460Z,19.97
2019-03-23T18:22:14.701Z,19.88
2019-03-23T18:24:43.011Z,19.83
2019-03-23T18:27:11.272Z,19.73
2019-03-23T18:29:40.672Z,19.63
2019-03-23T18:32:08.961Z,19.57
2019-03-23T18:34:37.176Z,19.46
2019-03-23T18:37:06.203Z,19.39
2019-03-23T18:39:34.533Z,19.32
2019-03-23T18:42:09.317Z,19.33
2019-03-23T18:44:37.638Z,19.22
2019-03-23T18:47:06.056Z,19.15
2019-03-23T18:49:36.365Z,19.05
2019-03-23T18:52:04.975Z,18.93
2019-03-23T18:54:33.287Z,18.90
2019-03-23T18:57:01.677Z,18.87
2019-03-23T18:59:30.037Z,18.79
2019-03-23T19:01:58.362Z,18.71
2019-03-23T19:04:26.724Z,18.60
2019-03-23T19:06:55.098Z,18.59
2019-03-23T19:09:23.353Z,18.53
2019-03-23T19:11:52.044Z,18.47
2019-03-23T19:14:20.305Z,18.42
2019-03-23T19:16:48.842Z,18.35
2019-03-23T19:19:17.890Z,18.31
2019-03-23T19:21:46.204Z,18.27
2019-03-23T19:24:14.530Z,18.19
2019-03-23T19:26:43.362Z,18.12
2019-03-23T19:29:11.569Z,18.15
2019-03-23T19:31:39.822Z,18.28
2019-03-23T19:34:08.737Z,18.26
2019-03-23T19:36:37.050Z,17.07
2019-03-23T19:39:08.393Z,17.09
2019-03-23T19:41:37.893Z,16.64
2019-03-23T19:44:07.686Z,16.53
2019-03-23T19:46:36.402Z,16.43
2019-03-23T19:49:04.706Z,16.25
2019-03-23T19:51:33.205Z,15.99
2019-03-23T19:54:01.812Z,15.72
2019-03-23T19:56:30.143Z,15.58
2019-03-23T19:58:58.513Z,15.59
2019-03-23T20:01:27.595Z,15.42
2019-03-23T20:03:55.996Z,15.18
2019-03-23T20:06:24.510Z,15.27
2019-03-23T20:08:53.254Z,15.15
2019-03-23T20:11:21.964Z,15.09
2019-03-23T20:13:58.400Z,14.89
2019-03-23T20:16:21.034Z,14.71
2019-03-23T20:18:49.524Z,14.74
2019-03-23T20:21:18.882Z,14.61
2019-03-23T20:23:47.915Z,14.63
2019-03-23T20:26:17.124Z,14.46
2019-03-23T20:28:45.409Z,14.34
2019-03-23T20:31:13.795Z,14.12
2019-03-23T20:33:43.533Z,13.94
2019-03-23T20:36:11.876Z,13.82
2019-03-23T20:38:40.373Z,13.95
2019-03-23T20:41:08.587Z,13.91
2019-03-23T20:43:37.366Z,13.68
2019-03-23T20:46:06.018Z,13.68
2019-03-23T20:48:36.462Z,13.60
2019-03-23T20:51:04.833Z,13.85
2019-03-23T20:53:33.552Z,13.90
2019-03-23T20:56:02.016Z,13.19
2019-03-23T20:58:30.572Z,13.19
2019-03-23T21:00:59.078Z,13.13
2019-03-23T21:03:27.416Z,13.23
2019-03-23T21:05:55.911Z,13.11
2019-03-23T21:08:24.222Z,12.87
2019-03-23T21:10:52.772Z,12.94
2019-03-23T21:13:22.480Z,13.11
2019-03-23T21:15:50.777Z,12.92
2019-03-23T21:18:19.294Z,12.78
2019-03-23T21:20:47.614Z,12.72
2019-03-23T21:23:16.030Z,12.72
2019-03-23T21:25:44.706Z,12.50
2019-03-23T21:28:13.235Z,12.36
2019-03-23T21:30:41.488Z,12.32
2019-03-23T21:33:09.966Z,12.31
2019-03-23T21:35:38.308Z,12.24
2019-03-23T21:38:06.752Z,12.23
2019-03-23T21:40:35.297Z,12.07
2019-03-23T21:43:03.964Z,11.95
2019-03-23T21:45:32.369Z,11.84
2019-03-23T21:48:00.935Z,11.79
2019-03-23T21:50:29.371Z,11.83
2019-03-23T21:52:57.679Z,11.80
2019-03-23T21:55:26.095Z,11.88
2019-03-23T21:57:54.439Z,11.93
2019-03-23T22:00:31.315Z,11.93
2019-03-23T22:02:59.956Z,11.97
2019-03-23T22:05:28.357Z,11.97
2019-03-23T22:07:56.681Z,11.95
2019-03-23T22:10:26.131Z,11.88
2019-03-23T22:12:54.600Z,11.93
2019-03-23T22:15:23.111Z,11.87
2019-03-23T22:17:51.446Z,11.87
2019-03-23T22:20:19.729Z,12.01
2019-03-23T22:22:48.175Z,12.02
2019-03-23T22:25:16.404Z,12.02
2019-03-23T22:27:44.743Z,12.10
2019-03-23T22:30:13.555Z,12.09
2019-03-23T22:32:41.910Z,12.21
2019-03-23T22:35:11.385Z,12.21
2019-03-23T22:37:39.941Z,12.27
2019-03-23T22:40:09.130Z,12.34
2019-03-23T22:42:38.529Z,12.34
2019-03-23T22:45:08.754Z,12.40
2019-03-23T22:47:37.007Z,12.40
2019-03-23T22:50:06.212Z,12.40
2019-03-23T22:52:34.570Z,12.41
2019-03-23T22:55:03.358Z,12.41
2019-03-23T22:57:31.675Z,12.27
2019-03-23T23:00:00.345Z,12.27
2019-03-23T23:02:28.859Z,12.35
2019-03-23T23:04:57.191Z,12.27
2019-03-23T23:07:25.436Z,12.16
2019-03-23T23:09:53.727Z,11.93
2019-03-23T23:12:21.975Z,11.95
2019-03-23T23:14:52.529Z,12.01
2019-03-23T23:17:21.057Z,11.93
2019-03-23T23:19:49.316Z,11.93
2019-03-23T23:22:19.363Z,11.88
2019-03-23T23:24:47.618Z,11.88
2019-03-23T23:27:15.835Z,11.89
2019-03-23T23:29:44.124Z,11.90
2019-03-23T23:32:12.499Z,11.90
2019-03-23T23:34:40.865Z,11.87
2019-03-23T23:37:09.114Z,12.00
2019-03-23T23:39:37.536Z,11.88
2019-03-23T23:42:05.819Z,11.88
2019-03-23T23:44:34.122Z,11.91
2019-03-23T23:47:02.371Z,11.87
2019-03-23T23:49:30.684Z,11.87
2019-03-23T23:51:58.910Z,11.82
2019-03-23T23:54:27.275Z,11.78
2019-03-23T23:56:55.569Z,11.76
2019-03-23T23:59:23.848Z,11.76
